Time;durP1;ratioP1;P1;durP2;ratioP2;P2;SDS_P1;SDS_P2;PMS_P1;PMS_P2;Temp;Humidity;BMP_temperature;BMP_pressure;BME280_temperature;BME280_humidity;BME280_pressure;Samples;Min_cycle;Max_cycle;Signal;HPM_P1;HPM_P2
2022/05/16 00:00:58;;;;;;;5.649999;5.05;;;;;;;12.84;61.8291;95335.29;;;;
2022/05/16 00:01:59;;;;;;;5.649999;5.05;;;;;;;12.84;61.8291;95335.29;;;;
2022/05/16 00:03:00;;;;;;;5.649999;5.05;;;;;;;12.84;61.8291;95335.29;;;;
2022/05/16 00:04:03;;;;;;;5.8;4.849999;;;;;;;12.81;62.25781;95350.33;;;;
2022/05/16 00:05:04;;;;;;;5.8;4.849999;;;;;;;12.81;62.25781;95350.33;;;;
2022/05/16 00:06:06;;;;;;;5.8;4.849999;;;;;;;12.81;62.25781;95350.33;;;;
2022/05/16 00:07:06;;;;;;;5.8;4.849999;;;;;;;12.81;62.25781;95350.33;;;;
2022/05/16 00:08:07;;;;;;;5.8;4.849999;;;;;;;12.81;62.25781;95350.33;;;;
2022/05/16 00:09:08;;;;;;;5.8;4.849999;;;;;;;12.81;62.25781;95350.33;;;;
2022/05/16 00:10:08;;;;;;;5.8;4.849999;;;;;;;12.81;62.25781;95350.33;;;;
2022/05/16 00:11:09;;;;;;;5.8;4.849999;;;;;;;12.81;62.25781;95350.33;;;;
2022/05/16 00:12:09;;;;;;;5.8;4.849999;;;;;;;12.81;62.25781;95350.33;;;;
2022/05/16 00:13:15;;;;;;;5.8;4.849999;;;;;;;12.81;62.25781;95350.33;;;;
2022/05/16 00:14:15;;;;;;;6.7;4.9;;;;;;;12.73;62.54004;95356.86;;;;
2022/05/16 00:15:16;;;;;;;6.7;4.9;;;;;;;12.73;62.54004;95356.86;;;;
2022/05/16 00:16:22;;;;;;;6.7;4.9;;;;;;;12.73;62.54004;95356.86;;;;
2022/05/16 00:17:23;;;;;;;6.7;4.9;;;;;;;12.73;62.54004;95356.86;;;;
2022/05/16 00:18:24;;;;;;;6.7;4.9;;;;;;;12.73;62.54004;95356.86;;;;
2022/05/16 00:19:24;;;;;;;6.7;4.9;;;;;;;12.73;62.54004;95356.86;;;;
2022/05/16 00:20:25;;;;;;;6.7;4.9;;;;;;;12.73;62.54004;95356.86;;;;
2022/05/16 00:21:26;;;;;;;6.7;4.9;;;;;;;12.73;62.54004;95356.86;;;;
2022/05/16 00:22:27;;;;;;;6.7;4.9;;;;;;;12.73;62.54004;95356.86;;;;
2022/05/16 00:23:28;;;;;;;6.7;4.9;;;;;;;12.73;62.54004;95356.86;;;;
2022/05/16 00:24:28;;;;;;;6.7;4.9;;;;;;;12.73;62.54004;95356.86;;;;
2022/05/16 00:25:29;;;;;;;5.800001;4.7;;;;;;;12.71;62.81836;95343.55;;;;
2022/05/16 00:26:30;;;;;;;5.800001;4.7;;;;;;;12.71;62.81836;95343.55;;;;
2022/05/16 00:27:34;;;;;;;5.800001;4.7;;;;;;;12.71;62.81836;95343.55;;;;
2022/05/16 00:28:34;;;;;;;5.800001;4.7;;;;;;;12.71;62.81836;95343.55;;;;
2022/05/16 00:29:35;;;;;;;5.800001;4.7;;;;;;;12.71;62.81836;95343.55;;;;
2022/05/16 00:30:36;;;;;;;5.800001;4.7;;;;;;;12.71;62.81836;95343.55;;;;
2022/05/16 00:31:36;;;;;;;5.800001;4.7;;;;;;;12.71;62.81836;95343.55;;;;
2022/05/16 00:32:37;;;;;;;5.800001;4.7;;;;;;;12.71;62.81836;95343.55;;;;
2022/05/16 00:33:38;;;;;;;5.800001;4.7;;;;;;;12.71;62.81836;95343.55;;;;
2022/05/16 00:34:38;;;;;;;5.800001;4.7;;;;;;;12.71;62.81836;95343.55;;;;
2022/05/16 00:35:39;;;;;;;6.7;5.149999;;;;;;;12.61;63.07617;95346.31;;;;
2022/05/16 00:36:42;;;;;;;6.7;5.149999;;;;;;;12.61;63.07617;95346.31;;;;
2022/05/16 00:37:43;;;;;;;6.7;5.149999;;;;;;;12.61;63.07617;95346.31;;;;
2022/05/16 00:38:43;;;;;;;6.7;5.149999;;;;;;;12.61;63.07617;95346.31;;;;
2022/05/16 00:39:44;;;;;;;6.7;5.149999;;;;;;;12.61;63.07617;95346.31;;;;
2022/05/16 00:40:44;;;;;;;6.7;5.149999;;;;;;;12.61;63.07617;95346.31;;;;
2022/05/16 00:41:45;;;;;;;6.7;5.149999;;;;;;;12.61;63.07617;95346.31;;;;
2022/05/16 00:42:46;;;;;;;6.7;5.149999;;;;;;;12.61;63.07617;95346.31;;;;
2022/05/16 00:43:46;;;;;;;6.7;5.149999;;;;;;;12.61;63.07617;95346.31;;;;
2022/05/16 00:44:49;;;;;;;6.7;5.149999;;;;;;;12.61;63.07617;95346.31;;;;
2022/05/16 00:45:50;;;;;;;6.7;5.149999;;;;;;;12.61;63.07617;95346.31;;;;
2022/05/16 00:46:51;;;;;;;5.15;4.65;;;;;;;12.55;63.41406;95344.94;;;;
2022/05/16 00:47:51;;;;;;;5.15;4.65;;;;;;;12.55;63.41406;95344.94;;;;
2022/05/16 00:48:52;;;;;;;5.15;4.65;;;;;;;12.55;63.41406;95344.94;;;;
2022/05/16 00:49:53;;;;;;;5.15;4.65;;;;;;;12.55;63.41406;95344.94;;;;
2022/05/16 00:50:54;;;;;;;5.15;4.65;;;;;;;12.55;63.41406;95344.94;;;;
2022/05/16 00:51:55;;;;;;;5.15;4.65;;;;;;;12.55;63.41406;95344.94;;;;
2022/05/16 00:53:00;;;;;;;5.15;4.65;;;;;;;12.55;63.41406;95344.94;;;;
2022/05/16 00:54:00;;;;;;;5.15;4.65;;;;;;;12.55;63.41406;95344.94;;;;
2022/05/16 00:55:09;;;;;;;5.15;4.65;;;;;;;12.55;63.41406;95344.94;;;;
2022/05/16 00:56:12;;;;;;;5.15;4.65;;;;;;;12.55;63.41406;95344.94;;;;
2022/05/16 00:57:14;;;;;;;5.249999;4.749999;;;;;;;12.42;63.71094;95353.45;;;;
2022/05/16 00:58:19;;;;;;;5.249999;4.749999;;;;;;;12.42;63.71094;95353.45;;;;
2022/05/16 00:59:19;;;;;;;5.249999;4.749999;;;;;;;12.42;63.71094;95353.45;;;;
2022/05/16 01:00:27;;;;;;;5.249999;4.749999;;;;;;;12.42;63.71094;95353.45;;;;
2022/05/16 01:06:45;;;;;;;5.249999;4.749999;;;;;;;12.42;63.71094;95353.45;;;;
2022/05/16 01:07:46;;;;;;;5.45;4.85;;;;;;;12.36;64.06934;95345.58;;;;
2022/05/16 01:08:47;;;;;;;5.45;4.85;;;;;;;12.36;64.06934;95345.58;;;;
2022/05/16 01:09:48;;;;;;;5.45;4.85;;;;;;;12.36;64.06934;95345.58;;;;
2022/05/16 01:10:48;;;;;;;5.45;4.85;;;;;;;12.36;64.06934;95345.58;;;;
2022/05/16 01:11:49;;;;;;;5.45;4.85;;;;;;;12.36;64.06934;95345.58;;;;
2022/05/16 01:12:50;;;;;;;5.45;4.85;;;;;;;12.36;64.06934;95345.58;;;;
2022/05/16 01:13:53;;;;;;;5.45;4.85;;;;;;;12.36;64.06934;95345.58;;;;
2022/05/16 01:14:53;;;;;;;5.45;4.85;;;;;;;12.36;64.06934;95345.58;;;;
2022/05/16 01:15:56;;;;;;;5.45;4.85;;;;;;;12.36;64.06934;95345.58;;;;
2022/05/16 01:16:58;;;;;;;5.45;4.85;;;;;;;12.36;64.06934;95345.58;;;;
2022/05/16 01:17:59;;;;;;;6.349999;4.95;;;;;;;12.25;64.41211;95343.57;;;;
2022/05/16 01:18:59;;;;;;;6.349999;4.95;;;;;;;12.25;64.41211;95343.57;;;;
2022/05/16 01:20:00;;;;;;;6.349999;4.95;;;;;;;12.25;64.41211;95343.57;;;;
2022/05/16 01:21:01;;;;;;;6.349999;4.95;;;;;;;12.25;64.41211;95343.57;;;;
2022/05/16 01:22:17;;;;;;;6.349999;4.95;;;;;;;12.25;64.41211;95343.57;;;;
2022/05/16 01:23:24;;;;;;;6.349999;4.95;;;;;;;12.25;64.41211;95343.57;;;;
2022/05/16 01:24:26;;;;;;;6.349999;4.95;;;;;;;12.25;64.41211;95343.57;;;;
2022/05/16 01:25:27;;;;;;;6.349999;4.95;;;;;;;12.25;64.41211;95343.57;;;;
2022/05/16 01:26:28;;;;;;;6.349999;4.95;;;;;;;12.25;64.41211;95343.57;;;;
2022/05/16 01:27:31;;;;;;;6.349999;4.95;;;;;;;12.25;64.41211;95343.57;;;;
2022/05/16 01:28:40;;;;;;;5.749999;5.15;;;;;;;12.23;64.78809;95345.62;;;;
2022/05/16 01:29:42;;;;;;;5.749999;5.15;;;;;;;12.23;64.78809;95345.62;;;;
2022/05/16 01:30:46;;;;;;;5.749999;5.15;;;;;;;12.23;64.78809;95345.62;;;;
2022/05/16 01:31:47;;;;;;;5.749999;5.15;;;;;;;12.23;64.78809;95345.62;;;;
2022/05/16 01:32:48;;;;;;;5.749999;5.15;;;;;;;12.23;64.78809;95345.62;;;;
2022/05/16 01:33:49;;;;;;;5.749999;5.15;;;;;;;12.23;64.78809;95345.62;;;;
2022/05/16 01:34:50;;;;;;;5.749999;5.15;;;;;;;12.23;64.78809;95345.62;;;;
2022/05/16 01:35:50;;;;;;;5.749999;5.15;;;;;;;12.23;64.78809;95345.62;;;;
2022/05/16 01:36:52;;;;;;;5.749999;5.15;;;;;;;12.23;64.78809;95345.62;;;;
2022/05/16 01:38:26;;;;;;;5.749999;5.15;;;;;;;12.23;64.78809;95345.62;;;;
2022/05/16 01:39:28;;;;;;;5.849999;5.349999;;;;;;;12.15;65.12109;95353.96;;;;
2022/05/16 01:40:29;;;;;;;5.849999;5.349999;;;;;;;12.15;65.12109;95353.96;;;;
2022/05/16 01:41:29;;;;;;;5.849999;5.349999;;;;;;;12.15;65.12109;95353.96;;;;
2022/05/16 01:42:30;;;;;;;5.849999;5.349999;;;;;;;12.15;65.12109;95353.96;;;;
2022/05/16 01:43:30;;;;;;;5.849999;5.349999;;;;;;;12.15;65.12109;95353.96;;;;
2022/05/16 01:44:34;;;;;;;5.849999;5.349999;;;;;;;12.15;65.12109;95353.96;;;;
2022/05/16 01:45:34;;;;;;;5.849999;5.349999;;;;;;;12.15;65.12109;95353.96;;;;
2022/05/16 01:46:36;;;;;;;5.849999;5.349999;;;;;;;12.15;65.12109;95353.96;;;;
2022/05/16 01:47:39;;;;;;;5.849999;5.349999;;;;;;;12.15;65.12109;95353.96;;;;
2022/05/16 01:48:40;;;;;;;5.849999;5.349999;;;;;;;12.15;65.12109;95353.96;;;;
2022/05/16 01:49:40;;;;;;;5.849999;5.349999;;;;;;;12.15;65.12109;95353.96;;;;
2022/05/16 01:50:41;;;;;;;6.099999;4.699999;;;;;;;12.23;65.4043;95369.57;;;;
2022/05/16 01:51:43;;;;;;;6.099999;4.699999;;;;;;;12.23;65.4043;95369.57;;;;
2022/05/16 01:52:43;;;;;;;6.099999;4.699999;;;;;;;12.23;65.4043;95369.57;;;;
2022/05/16 01:53:44;;;;;;;6.099999;4.699999;;;;;;;12.23;65.4043;95369.57;;;;
2022/05/16 01:54:44;;;;;;;6.099999;4.699999;;;;;;;12.23;65.4043;95369.57;;;;
2022/05/16 01:55:45;;;;;;;6.099999;4.699999;;;;;;;12.23;65.4043;95369.57;;;;
2022/05/16 01:56:46;;;;;;;6.099999;4.699999;;;;;;;12.23;65.4043;95369.57;;;;
2022/05/16 01:57:46;;;;;;;6.099999;4.699999;;;;;;;12.23;65.4043;95369.57;;;;
2022/05/16 01:58:48;;;;;;;6.099999;4.699999;;;;;;;12.23;65.4043;95369.57;;;;
2022/05/16 01:59:48;;;;;;;6.099999;4.699999;;;;;;;12.23;65.4043;95369.57;;;;
2022/05/16 02:00:49;;;;;;;5.799999;4.9;;;;;;;12.21;65.4668;95377.33;;;;
2022/05/16 02:01:50;;;;;;;5.799999;4.9;;;;;;;12.21;65.4668;95377.33;;;;
2022/05/16 02:02:50;;;;;;;5.799999;4.9;;;;;;;12.21;65.4668;95377.33;;;;
2022/05/16 02:03:51;;;;;;;5.799999;4.9;;;;;;;12.21;65.4668;95377.33;;;;
2022/05/16 02:04:52;;;;;;;5.799999;4.9;;;;;;;12.21;65.4668;95377.33;;;;
2022/05/16 02:05:52;;;;;;;5.799999;4.9;;;;;;;12.21;65.4668;95377.33;;;;
2022/05/16 02:06:53;;;;;;;5.799999;4.9;;;;;;;12.21;65.4668;95377.33;;;;
2022/05/16 02:07:53;;;;;;;5.799999;4.9;;;;;;;12.21;65.4668;95377.33;;;;
2022/05/16 02:08:54;;;;;;;5.799999;4.9;;;;;;;12.21;65.4668;95377.33;;;;
2022/05/16 02:09:55;;;;;;;5.799999;4.9;;;;;;;12.21;65.4668;95377.33;;;;
2022/05/16 02:10:55;;;;;;;5.799999;4.9;;;;;;;12.21;65.4668;95377.33;;;;
2022/05/16 02:11:56;;;;;;;6;5.200001;;;;;;;12.26;65.60449;95383.61;;;;
2022/05/16 02:12:57;;;;;;;6;5.200001;;;;;;;12.26;65.60449;95383.61;;;;
2022/05/16 02:13:57;;;;;;;6;5.200001;;;;;;;12.26;65.60449;95383.61;;;;
2022/05/16 02:14:58;;;;;;;6;5.200001;;;;;;;12.26;65.60449;95383.61;;;;
2022/05/16 02:15:59;;;;;;;6;5.200001;;;;;;;12.26;65.60449;95383.61;;;;
2022/05/16 02:16:59;;;;;;;6;5.200001;;;;;;;12.26;65.60449;95383.61;;;;
2022/05/16 02:18:00;;;;;;;6;5.200001;;;;;;;12.26;65.60449;95383.61;;;;
2022/05/16 02:19:01;;;;;;;6;5.200001;;;;;;;12.26;65.60449;95383.61;;;;
2022/05/16 02:20:02;;;;;;;6;5.200001;;;;;;;12.26;65.60449;95383.61;;;;
2022/05/16 02:27:09;;;;;;;5.75;5.25;;;;;;;12.29;65.70605;95357.58;;;;
2022/05/16 02:28:14;;;;;;;5.75;5.25;;;;;;;12.29;65.70605;95357.58;;;;
2022/05/16 02:29:17;;;;;;;5.75;5.25;;;;;;;12.29;65.70605;95357.58;;;;
2022/05/16 02:30:20;;;;;;;5.75;5.25;;;;;;;12.29;65.70605;95357.58;;;;
2022/05/16 02:31:22;;;;;;;5.75;5.25;;;;;;;12.29;65.70605;95357.58;;;;
2022/05/16 02:32:22;;;;;;;5.75;5.25;;;;;;;12.29;65.70605;95357.58;;;;
2022/05/16 02:33:23;;;;;;;5.75;5.25;;;;;;;12.29;65.70605;95357.58;;;;
2022/05/16 02:34:24;;;;;;;5.75;5.25;;;;;;;12.29;65.70605;95357.58;;;;
2022/05/16 02:35:24;;;;;;;5.75;5.25;;;;;;;12.29;65.70605;95357.58;;;;
2022/05/16 02:36:25;;;;;;;5.75;5.25;;;;;;;12.29;65.70605;95357.58;;;;
2022/05/16 02:37:25;;;;;;;5.75;5.25;;;;;;;12.29;65.70605;95357.58;;;;
2022/05/16 02:38:27;;;;;;;5.75;5.25;;;;;;;12.29;65.70605;95357.58;;;;
2022/05/16 02:39:27;;;;;;;5.75;5.25;;;;;;;12.29;65.70605;95357.58;;;;
2022/05/16 02:40:28;;;;;;;5.75;5.25;;;;;;;12.29;65.70605;95357.58;;;;
2022/05/16 02:41:30;;;;;;;5.75;5.25;;;;;;;12.29;65.70605;95357.58;;;;
2022/05/16 02:42:31;;;;;;;5.75;5.25;;;;;;;12.29;65.70605;95357.58;;;;
2022/05/16 02:43:32;;;;;;;6.6;5.8;;;;;;;12.64;66.09473;95366.16;;;;
2022/05/16 02:44:32;;;;;;;6.6;5.8;;;;;;;12.64;66.09473;95366.16;;;;
2022/05/16 02:45:33;;;;;;;6.6;5.8;;;;;;;12.64;66.09473;95366.16;;;;
2022/05/16 02:46:34;;;;;;;6.6;5.8;;;;;;;12.64;66.09473;95366.16;;;;
2022/05/16 02:47:35;;;;;;;6.6;5.8;;;;;;;12.64;66.09473;95366.16;;;;
2022/05/16 02:48:35;;;;;;;6.6;5.8;;;;;;;12.64;66.09473;95366.16;;;;
2022/05/16 02:49:36;;;;;;;6.6;5.8;;;;;;;12.64;66.09473;95366.16;;;;
2022/05/16 02:50:36;;;;;;;6.6;5.8;;;;;;;12.64;66.09473;95366.16;;;;
2022/05/16 02:51:37;;;;;;;6.6;5.8;;;;;;;12.64;66.09473;95366.16;;;;
2022/05/16 02:52:38;;;;;;;6.6;5.8;;;;;;;12.64;66.09473;95366.16;;;;
2022/05/16 02:53:38;;;;;;;6.6;5.8;;;;;;;12.64;66.09473;95366.16;;;;
2022/05/16 02:54:39;;;;;;;5.55;5.05;;;;;;;12.89;66.13281;95377.47;;;;
2022/05/16 02:55:39;;;;;;;5.55;5.05;;;;;;;12.89;66.13281;95377.47;;;;
2022/05/16 02:56:40;;;;;;;5.55;5.05;;;;;;;12.89;66.13281;95377.47;;;;
2022/05/16 02:57:40;;;;;;;5.55;5.05;;;;;;;12.89;66.13281;95377.47;;;;
2022/05/16 02:58:43;;;;;;;5.55;5.05;;;;;;;12.89;66.13281;95377.47;;;;
2022/05/16 02:59:43;;;;;;;5.55;5.05;;;;;;;12.89;66.13281;95377.47;;;;
2022/05/16 03:00:44;;;;;;;5.55;5.05;;;;;;;12.89;66.13281;95377.47;;;;
2022/05/16 03:01:44;;;;;;;5.55;5.05;;;;;;;12.89;66.13281;95377.47;;;;
2022/05/16 03:02:45;;;;;;;5.55;5.05;;;;;;;12.89;66.13281;95377.47;;;;
2022/05/16 03:03:45;;;;;;;5.55;5.05;;;;;;;12.89;66.13281;95377.47;;;;
2022/05/16 03:04:46;;;;;;;6.5;5.05;;;;;;;13.03;66.07813;95381.62;;;;
2022/05/16 03:05:46;;;;;;;6.5;5.05;;;;;;;13.03;66.07813;95381.62;;;;
2022/05/16 03:06:47;;;;;;;6.5;5.05;;;;;;;13.03;66.07813;95381.62;;;;
2022/05/16 03:07:47;;;;;;;6.5;5.05;;;;;;;13.03;66.07813;95381.62;;;;
2022/05/16 03:08:48;;;;;;;6.5;5.05;;;;;;;13.03;66.07813;95381.62;;;;
2022/05/16 03:09:48;;;;;;;6.5;5.05;;;;;;;13.03;66.07813;95381.62;;;;
2022/05/16 03:10:49;;;;;;;6.5;5.05;;;;;;;13.03;66.07813;95381.62;;;;
2022/05/16 03:11:49;;;;;;;6.5;5.05;;;;;;;13.03;66.07813;95381.62;;;;
2022/05/16 03:12:51;;;;;;;6.5;5.05;;;;;;;13.03;66.07813;95381.62;;;;
2022/05/16 03:13:52;;;;;;;6.5;5.05;;;;;;;13.03;66.07813;95381.62;;;;
2022/05/16 03:14:52;;;;;;;6.5;5.05;;;;;;;13.03;66.07813;95381.62;;;;
2022/05/16 03:15:53;;;;;;;5.900001;5.050001;;;;;;;13.14;66.1377;95363.61;;;;
2022/05/16 03:16:53;;;;;;;5.900001;5.050001;;;;;;;13.14;66.1377;95363.61;;;;
2022/05/16 03:17:54;;;;;;;5.900001;5.050001;;;;;;;13.14;66.1377;95363.61;;;;
2022/05/16 03:18:55;;;;;;;5.900001;5.050001;;;;;;;13.14;66.1377;95363.61;;;;
2022/05/16 03:19:55;;;;;;;5.900001;5.050001;;;;;;;13.14;66.1377;95363.61;;;;
2022/05/16 03:20:57;;;;;;;5.900001;5.050001;;;;;;;13.14;66.1377;95363.61;;;;
2022/05/16 03:21:58;;;;;;;5.900001;5.050001;;;;;;;13.14;66.1377;95363.61;;;;
2022/05/16 03:22:58;;;;;;;5.900001;5.050001;;;;;;;13.14;66.1377;95363.61;;;;
2022/05/16 03:23:59;;;;;;;5.900001;5.050001;;;;;;;13.14;66.1377;95363.61;;;;
2022/05/16 03:25:00;;;;;;;5.900001;5.050001;;;;;;;13.14;66.1377;95363.61;;;;
2022/05/16 03:26:01;;;;;;;5.900001;5.050001;;;;;;;13.14;66.1377;95363.61;;;;
2022/05/16 03:27:01;;;;;;;5.900001;5.050001;;;;;;;13.14;66.1377;95363.61;;;;
2022/05/16 03:28:02;;;;;;;5.900001;5.050001;;;;;;;13.14;66.1377;95363.61;;;;
2022/05/16 03:29:05;;;;;;;5.900001;5.050001;;;;;;;13.14;66.1377;95363.61;;;;
2022/05/16 03:30:06;;;;;;;5.900001;5.050001;;;;;;;13.14;66.1377;95363.61;;;;
2022/05/16 03:31:10;;;;;;;5.900001;5.050001;;;;;;;13.14;66.1377;95363.61;;;;
2022/05/16 03:32:10;;;;;;;5.900001;5.050001;;;;;;;13.14;66.1377;95363.61;;;;
2022/05/16 03:33:11;;;;;;;5.900001;5.050001;;;;;;;13.14;66.1377;95363.61;;;;
2022/05/16 03:34:12;;;;;;;5.900001;5.050001;;;;;;;13.14;66.1377;95363.61;;;;
2022/05/16 03:35:12;;;;;;;5.900001;5.050001;;;;;;;13.14;66.1377;95363.61;;;;
2022/05/16 03:36:13;;;;;;;5.900001;5.050001;;;;;;;13.14;66.1377;95363.61;;;;
2022/05/16 03:37:14;;;;;;;8.2;5.5;;;;;;;13.4;66.39355;95342.91;;;;
2022/05/16 03:40:42;;;;;;;8.2;5.5;;;;;;;13.4;66.39355;95342.91;;;;
2022/05/16 03:41:42;;;;;;;8.2;5.5;;;;;;;13.4;66.39355;95342.91;;;;
2022/05/16 03:42:43;;;;;;;8.2;5.5;;;;;;;13.4;66.39355;95342.91;;;;
2022/05/16 03:43:43;;;;;;;8.2;5.5;;;;;;;13.4;66.39355;95342.91;;;;
2022/05/16 03:44:43;;;;;;;8.2;5.5;;;;;;;13.4;66.39355;95342.91;;;;
2022/05/16 03:45:44;;;;;;;8.2;5.5;;;;;;;13.4;66.39355;95342.91;;;;
2022/05/16 03:46:45;;;;;;;8.2;5.5;;;;;;;13.4;66.39355;95342.91;;;;
2022/05/16 03:47:45;;;;;;;5.5;5;;;;;;;13.58;66.47559;95349.47;;;;
2022/05/16 03:48:46;;;;;;;5.5;5;;;;;;;13.58;66.47559;95349.47;;;;
2022/05/16 03:49:46;;;;;;;5.5;5;;;;;;;13.58;66.47559;95349.47;;;;
2022/05/16 03:50:47;;;;;;;5.5;5;;;;;;;13.58;66.47559;95349.47;;;;
2022/05/16 03:51:48;;;;;;;5.5;5;;;;;;;13.58;66.47559;95349.47;;;;
2022/05/16 03:52:48;;;;;;;5.5;5;;;;;;;13.58;66.47559;95349.47;;;;
2022/05/16 03:53:49;;;;;;;5.5;5;;;;;;;13.58;66.47559;95349.47;;;;
2022/05/16 03:54:49;;;;;;;5.5;5;;;;;;;13.58;66.47559;95349.47;;;;
2022/05/16 03:55:50;;;;;;;5.5;5;;;;;;;13.58;66.47559;95349.47;;;;
2022/05/16 03:56:51;;;;;;;5.5;5;;;;;;;13.58;66.47559;95349.47;;;;
2022/05/16 03:57:52;;;;;;;5.5;5;;;;;;;13.58;66.47559;95349.47;;;;
2022/05/16 03:58:52;;;;;;;6.2;5.45;;;;;;;13.68;66.5332;95365.25;;;;
2022/05/16 03:59:55;;;;;;;6.2;5.45;;;;;;;13.68;66.5332;95365.25;;;;
2022/05/16 04:00:56;;;;;;;6.2;5.45;;;;;;;13.68;66.5332;95365.25;;;;
2022/05/16 04:01:58;;;;;;;6.2;5.45;;;;;;;13.68;66.5332;95365.25;;;;
2022/05/16 04:02:59;;;;;;;6.2;5.45;;;;;;;13.68;66.5332;95365.25;;;;
2022/05/16 04:03:59;;;;;;;6.2;5.45;;;;;;;13.68;66.5332;95365.25;;;;
2022/05/16 04:05:00;;;;;;;6.2;5.45;;;;;;;13.68;66.5332;95365.25;;;;
2022/05/16 04:06:00;;;;;;;6.2;5.45;;;;;;;13.68;66.5332;95365.25;;;;
2022/05/16 04:07:00;;;;;;;6.2;5.45;;;;;;;13.68;66.5332;95365.25;;;;
2022/05/16 04:08:01;;;;;;;6.2;5.45;;;;;;;13.68;66.5332;95365.25;;;;
2022/05/16 04:09:03;;;;;;;7.399999;5.299999;;;;;;;13.87;66.69238;95375.66;;;;
2022/05/16 04:10:03;;;;;;;7.399999;5.299999;;;;;;;13.87;66.69238;95375.66;;;;
2022/05/16 04:11:05;;;;;;;7.399999;5.299999;;;;;;;13.87;66.69238;95375.66;;;;
2022/05/16 04:12:06;;;;;;;7.399999;5.299999;;;;;;;13.87;66.69238;95375.66;;;;
2022/05/16 04:13:07;;;;;;;7.399999;5.299999;;;;;;;13.87;66.69238;95375.66;;;;
2022/05/16 04:14:08;;;;;;;7.399999;5.299999;;;;;;;13.87;66.69238;95375.66;;;;
2022/05/16 04:15:09;;;;;;;7.399999;5.299999;;;;;;;13.87;66.69238;95375.66;;;;
2022/05/16 04:16:10;;;;;;;7.399999;5.299999;;;;;;;13.87;66.69238;95375.66;;;;
2022/05/16 04:17:11;;;;;;;7.399999;5.299999;;;;;;;13.87;66.69238;95375.66;;;;
2022/05/16 04:18:12;;;;;;;7.399999;5.299999;;;;;;;13.87;66.69238;95375.66;;;;
2022/05/16 04:19:12;;;;;;;7.399999;5.299999;;;;;;;13.87;66.69238;95375.66;;;;
2022/05/16 04:20:13;;;;;;;5.600001;5.05;;;;;;;14.01;66.69238;95368.56;;;;
2022/05/16 04:21:14;;;;;;;5.600001;5.05;;;;;;;14.01;66.69238;95368.56;;;;
2022/05/16 04:22:15;;;;;;;5.600001;5.05;;;;;;;14.01;66.69238;95368.56;;;;
2022/05/16 04:23:15;;;;;;;5.600001;5.05;;;;;;;14.01;66.69238;95368.56;;;;
2022/05/16 04:24:16;;;;;;;5.600001;5.05;;;;;;;14.01;66.69238;95368.56;;;;
2022/05/16 04:25:17;;;;;;;5.600001;5.05;;;;;;;14.01;66.69238;95368.56;;;;
2022/05/16 04:26:19;;;;;;;5.600001;5.05;;;;;;;14.01;66.69238;95368.56;;;;
2022/05/16 04:27:20;;;;;;;5.600001;5.05;;;;;;;14.01;66.69238;95368.56;;;;
2022/05/16 04:28:21;;;;;;;5.600001;5.05;;;;;;;14.01;66.69238;95368.56;;;;
2022/05/16 04:29:22;;;;;;;5.600001;5.05;;;;;;;14.01;66.69238;95368.56;;;;
2022/05/16 04:30:23;;;;;;;5.600001;5.05;;;;;;;14.01;66.69238;95368.56;;;;
2022/05/16 04:31:23;;;;;;;5.600001;5.05;;;;;;;14.01;66.69238;95368.56;;;;
2022/05/16 04:32:24;;;;;;;5.600001;5.05;;;;;;;14.01;66.69238;95368.56;;;;
2022/05/16 04:33:25;;;;;;;5.600001;5.05;;;;;;;14.01;66.69238;95368.56;;;;
2022/05/16 04:34:25;;;;;;;5.600001;5.05;;;;;;;14.01;66.69238;95368.56;;;;
2022/05/16 04:35:25;;;;;;;5.600001;5.05;;;;;;;14.01;66.69238;95368.56;;;;
2022/05/16 04:36:26;;;;;;;5.600001;5.05;;;;;;;14.01;66.69238;95368.56;;;;
2022/05/16 04:37:32;;;;;;;5.600001;5.05;;;;;;;14.01;66.69238;95368.56;;;;
2022/05/16 04:38:33;;;;;;;5.600001;5.05;;;;;;;14.01;66.69238;95368.56;;;;
2022/05/16 04:39:33;;;;;;;5.600001;5.05;;;;;;;14.01;66.69238;95368.56;;;;
2022/05/16 04:40:34;;;;;;;5.600001;5.05;;;;;;;14.01;66.69238;95368.56;;;;
2022/05/16 04:46:45;;;;;;;6.5;5.800001;;;;;;;14.4;66.80469;95366.66;;;;
2022/05/16 04:47:45;;;;;;;6.5;5.800001;;;;;;;14.4;66.80469;95366.66;;;;
2022/05/16 04:48:51;;;;;;;6.5;5.800001;;;;;;;14.4;66.80469;95366.66;;;;
2022/05/16 04:49:52;;;;;;;6.5;5.800001;;;;;;;14.4;66.80469;95366.66;;;;
2022/05/16 04:50:52;;;;;;;6.5;5.800001;;;;;;;14.4;66.80469;95366.66;;;;
2022/05/16 04:51:53;;;;;;;6.100001;5.5;;;;;;;14.68;66.95605;95376.98;;;;
2022/05/16 04:52:53;;;;;;;6.100001;5.5;;;;;;;14.68;66.95605;95376.98;;;;
2022/05/16 04:53:55;;;;;;;6.100001;5.5;;;;;;;14.68;66.95605;95376.98;;;;
2022/05/16 04:54:55;;;;;;;6.100001;5.5;;;;;;;14.68;66.95605;95376.98;;;;
2022/05/16 04:55:56;;;;;;;6.100001;5.5;;;;;;;14.68;66.95605;95376.98;;;;
2022/05/16 04:56:56;;;;;;;6.100001;5.5;;;;;;;14.68;66.95605;95376.98;;;;
2022/05/16 04:57:57;;;;;;;6.100001;5.5;;;;;;;14.68;66.95605;95376.98;;;;
2022/05/16 04:58:57;;;;;;;6.100001;5.5;;;;;;;14.68;66.95605;95376.98;;;;
2022/05/16 04:59:58;;;;;;;6.100001;5.5;;;;;;;14.68;66.95605;95376.98;;;;
2022/05/16 05:00:59;;;;;;;6.100001;5.5;;;;;;;14.68;66.95605;95376.98;;;;
2022/05/16 05:01:59;;;;;;;6.100001;5.5;;;;;;;14.68;66.95605;95376.98;;;;
2022/05/16 05:03:00;;;;;;;6.5;5.750001;;;;;;;14.91;66.94922;95371.47;;;;
2022/05/16 05:04:00;;;;;;;6.5;5.750001;;;;;;;14.91;66.94922;95371.47;;;;
2022/05/16 05:05:03;;;;;;;6.5;5.750001;;;;;;;14.91;66.94922;95371.47;;;;
2022/05/16 05:06:05;;;;;;;6.5;5.750001;;;;;;;14.91;66.94922;95371.47;;;;
2022/05/16 05:07:05;;;;;;;6.5;5.750001;;;;;;;14.91;66.94922;95371.47;;;;
2022/05/16 05:08:06;;;;;;;6.5;5.750001;;;;;;;14.91;66.94922;95371.47;;;;
2022/05/16 05:09:07;;;;;;;6.5;5.750001;;;;;;;14.91;66.94922;95371.47;;;;
2022/05/16 05:15:20;;;;;;;7.3;6.299999;;;;;;;15.33;67.04395;95376.53;;;;
2022/05/16 05:16:21;;;;;;;7.3;6.299999;;;;;;;15.33;67.04395;95376.53;;;;
2022/05/16 05:17:23;;;;;;;7.3;6.299999;;;;;;;15.33;67.04395;95376.53;;;;
2022/05/16 05:18:23;;;;;;;7.3;6.299999;;;;;;;15.33;67.04395;95376.53;;;;
2022/05/16 05:19:24;;;;;;;7.3;6.299999;;;;;;;15.33;67.04395;95376.53;;;;
2022/05/16 05:20:24;;;;;;;7.3;6.299999;;;;;;;15.33;67.04395;95376.53;;;;
2022/05/16 05:21:27;;;;;;;7.3;6.299999;;;;;;;15.33;67.04395;95376.53;;;;
2022/05/16 05:22:28;;;;;;;7.3;6.299999;;;;;;;15.33;67.04395;95376.53;;;;
2022/05/16 05:23:29;;;;;;;7.3;6.299999;;;;;;;15.33;67.04395;95376.53;;;;
2022/05/16 05:24:29;;;;;;;7.3;6.299999;;;;;;;15.33;67.04395;95376.53;;;;
2022/05/16 05:25:30;;;;;;;7.3;6.299999;;;;;;;15.33;67.04395;95376.53;;;;
2022/05/16 05:26:31;;;;;;;7.3;6.299999;;;;;;;15.33;67.04395;95376.53;;;;
2022/05/16 05:27:32;;;;;;;7.3;6.299999;;;;;;;15.33;67.04395;95376.53;;;;
2022/05/16 05:28:33;;;;;;;7.3;6.299999;;;;;;;15.33;67.04395;95376.53;;;;
2022/05/16 05:29:34;;;;;;;7.3;6.299999;;;;;;;15.33;67.04395;95376.53;;;;
2022/05/16 05:30:34;;;;;;;7.3;6.299999;;;;;;;15.33;67.04395;95376.53;;;;
2022/05/16 05:31:35;;;;;;;7.3;6.299999;;;;;;;15.33;67.04395;95376.53;;;;
2022/05/16 05:32:35;;;;;;;7.3;6.299999;;;;;;;15.33;67.04395;95376.53;;;;
2022/05/16 05:33:36;;;;;;;7.3;6.299999;;;;;;;15.33;67.04395;95376.53;;;;
2022/05/16 05:34:36;;;;;;;7.3;6.299999;;;;;;;15.33;67.04395;95376.53;;;;
2022/05/16 05:35:38;;;;;;;7.3;6.299999;;;;;;;15.33;67.04395;95376.53;;;;
2022/05/16 05:36:38;;;;;;;7.3;6.299999;;;;;;;15.33;67.04395;95376.53;;;;
2022/05/16 05:37:40;;;;;;;7.3;6.299999;;;;;;;15.33;67.04395;95376.53;;;;
2022/05/16 05:38:41;;;;;;;7.3;6.299999;;;;;;;15.33;67.04395;95376.53;;;;
2022/05/16 05:39:41;;;;;;;7.3;6.299999;;;;;;;15.33;67.04395;95376.53;;;;
2022/05/16 05:40:42;;;;;;;7.3;6.299999;;;;;;;15.33;67.04395;95376.53;;;;
2022/05/16 05:41:42;;;;;;;7.3;6.299999;;;;;;;15.33;67.04395;95376.53;;;;
2022/05/16 05:42:43;;;;;;;7.3;6.299999;;;;;;;15.33;67.04395;95376.53;;;;
2022/05/16 05:43:44;;;;;;;7.3;6.299999;;;;;;;15.33;67.04395;95376.53;;;;
2022/05/16 05:44:44;;;;;;;10.3;6.100001;;;;;;;16.97;66.69238;95370.86;;;;
2022/05/16 05:45:45;;;;;;;10.3;6.100001;;;;;;;16.97;66.69238;95370.86;;;;
2022/05/16 05:46:46;;;;;;;10.3;6.100001;;;;;;;16.97;66.69238;95370.86;;;;
2022/05/16 05:47:46;;;;;;;10.3;6.100001;;;;;;;16.97;66.69238;95370.86;;;;
2022/05/16 05:48:47;;;;;;;10.3;6.100001;;;;;;;16.97;66.69238;95370.86;;;;
2022/05/16 05:49:47;;;;;;;10.3;6.100001;;;;;;;16.97;66.69238;95370.86;;;;
2022/05/16 05:50:48;;;;;;;10.3;6.100001;;;;;;;16.97;66.69238;95370.86;;;;
2022/05/16 05:51:48;;;;;;;10.3;6.100001;;;;;;;16.97;66.69238;95370.86;;;;
2022/05/16 05:52:49;;;;;;;10.3;6.100001;;;;;;;16.97;66.69238;95370.86;;;;
2022/05/16 05:53:49;;;;;;;10.3;6.100001;;;;;;;16.97;66.69238;95370.86;;;;
2022/05/16 05:54:50;;;;;;;10.3;6.100001;;;;;;;16.97;66.69238;95370.86;;;;
2022/05/16 05:55:51;;;;;;;8.35;5.849999;;;;;;;17.48;66.29688;95376.25;;;;
2022/05/16 05:56:51;;;;;;;8.35;5.849999;;;;;;;17.48;66.29688;95376.25;;;;
2022/05/16 05:57:52;;;;;;;8.35;5.849999;;;;;;;17.48;66.29688;95376.25;;;;
2022/05/16 05:58:53;;;;;;;8.35;5.849999;;;;;;;17.48;66.29688;95376.25;;;;